Latest Coastal Weather Observations for Albion Park

IDN60701

Issued at 8:02 am EST Monday 27 May 2024 (issued every 10 minutes, with the page automatically refreshed every 10 minutes)

About coastal observations | Map of coastal stations | Coastal observations for NSW | Marine services | Other Formats
Station Details ID: 068241 Name: SHELLHARBOUR AIRPORT Lat: -34.56 Lon: 150.79 Height: 8.0 m
Data from the previous 72 hours. | See also: Recent months at Albion Park
Date/Time
EST
Wind Sea
Height
m
Swell Vis
km
Cloud Weather Temp
°C
Press
MSL
hPa
Rain since
9am
mm
Dir  Spd
kts
Gust
kts
Height
m
Period
s
Dir
27/08:00am NNE 2 4 - - - - 10 Clear - 8.8 1025.0 0.2
27/07:30am SW 2 4 - - - - 10 - - 6.4 1024.7 0.2
27/07:05am CALM 0 0 - - - - 10 - - 5.1 1024.6 0.2
27/07:00am CALM 0 0 - - - - 10 - - 5.0 1024.6 0.2
27/06:47am CALM 0 0 - - - - 5 - - 4.9 1024.5 0.2
27/06:30am CALM 0 0 - - - - 10 - - 4.9 1024.5 0.2
27/06:00am CALM 0 0 - - - - 10 - - 4.9 1024.1 0.2
27/05:45am CALM 0 0 - - - - 1 Partly cloudy - 5.0 1024.1 0.2
27/05:41am CALM 0 0 - - - - 0.9 Partly cloudy - 5.3 1024.0 0.2
27/05:35am CALM 0 0 - - - - 3 - - 5.2 1024.0 0.2
27/05:31am CALM 0 0 - - - - 10 - - 5.4 1023.9 0.2
27/05:30am CALM 0 0 - - - - 10 - - 5.3 1023.9 0.2
27/05:12am CALM 0 0 - - - - 5 - - 5.5 1023.9 0.2
27/05:00am CALM 0 0 - - - - 10 - - 5.7 1023.8 0.2
27/04:30am CALM 0 0 - - - - 10 - - 5.1 1023.9 0.2
27/04:21am CALM 0 0 - - - - 10 Partly cloudy - 5.1 1023.8 0.2
27/04:07am CALM 0 0 - - - - 1 Partly cloudy - 5.1 1023.8 0.2
27/04:00am CALM 0 0 - - - - 0.9 Partly cloudy - 5.6 1023.7 0.2
27/03:55am CALM 0 0 - - - - 4 - - 5.7 1023.8 0.2
27/03:49am CALM 0 0 - - - - 10 - - 6.0 1023.7 0.2
27/03:30am CALM 0 0 - - - - 3 - - 6.3 1023.7 0.2
27/03:03am CALM 0 0 - - - - 5 - - 6.6 1023.8 0.2
27/03:00am CALM 0 0 - - - - 10 - - 6.5 1023.8 0.2
27/02:30am WSW 1 3 - - - - 10 - - 6.9 1023.8 0.2
27/02:18am WSW 2 4 - - - - 6 - - 7.4 1023.9 0.2
27/02:00am CALM 0 0 - - - - 2 - - 7.3 1023.9 0.2
27/01:34am CALM 0 0 - - - - 4 - - 7.0 1024.0 0.2
27/01:33am CALM 0 0 - - - - 6 - - 7.2 1024.0 0.2
27/01:30am CALM 0 0 - - - - 10 - - 7.1 1024.0 0.2
27/01:12am WSW 3 3 - - - - 4 - - 7.5 1024.1 0.2
27/01:07am WSW 3 3 - - - - 10 - - 7.4 1024.2 0.2
27/01:00am WSW 3 3 - - - - 10 - - 7.0 1024.3 0.2
27/12:46am WSW 2 3 - - - - 5 - - 7.7 1024.4 0.2
27/12:30am WSW 3 4 - - - - 10 - - 7.5 1024.5 0.2
27/12:00am WSW 3 4 - - - - 10 - - 8.1 1024.8 0.2
 
Date/Time
EST
Wind Sea
Height
m
Swell Vis
km
Cloud Weather Temp
°C
Press
MSL
hPa
Rain since
9am
mm
Dir  Spd
kts
Gust
kts
Height
m
Period
s
Dir
26/11:30pm CALM 0 2 - - - - 10 - - 8.3 1024.9 0.2
26/11:00pm WNW 4 5 - - - - 10 - - 8.6 1025.0 0.2
26/10:30pm W 4 4 - - - - 10 - - 9.0 1025.1 0.2
26/10:00pm WNW 3 4 - - - - 10 - - 9.4 1025.2 0.2
26/09:30pm CALM 0 1 - - - - 10 - - 9.8 1025.2 0.2
26/09:00pm WNW 2 6 - - - - 10 - - 10.3 1025.2 0.2
26/08:30pm WSW 4 5 - - - - 10 - - 10.5 1024.9 0.2
26/08:00pm WSW 4 5 - - - - 10 - - 10.9 1024.8 0.2
26/07:30pm W 5 6 - - - - 10 - - 10.6 1024.6 0.2
26/07:00pm WSW 3 3 - - - - 10 - - 11.6 1024.4 0.2
26/06:30pm W 5 6 - - - - 10 - - 12.3 1024.3 0.2
26/06:00pm W 6 7 - - - - 10 - - 13.0 1023.9 0.2
26/05:30pm SSW 3 5 - - - - 10 - - 14.1 1023.6 0.2
26/05:00pm SSW 4 5 - - - - 10 - - 16.4 1023.3 0.2
26/04:30pm N 4 6 - - - - 10 - - 18.6 1022.9 0.2
26/04:00pm N 4 6 - - - - 10 - - 19.3 1022.9 0.2
26/03:30pm NNE 6 8 - - - - 10 - - 19.7 1022.9 0.2
26/03:00pm N 5 8 - - - - 10 - - 20.3 1022.8 0.2
26/02:30pm NNE 5 8 - - - - 10 - - 20.6 1022.8 0.2
26/02:00pm NNE 7 9 - - - - 10 - - 20.5 1022.9 0.2
26/01:30pm NNE 6 10 - - - - 10 - - 20.2 1023.1 0.2
26/01:00pm NE 7 9 - - - - 10 - - 20.4 1023.5 0.2
26/12:30pm NE 8 10 - - - - 10 - - 19.7 1023.8 0.2
26/12:00pm NE 6 10 - - - - 10 - Recent precip. 19.7 1024.3 0.2
26/11:30am ENE 4 5 - - - - 10 - - 20.7 1024.8 0.0
26/11:00am NNE 1 4 - - - - 10 - - 19.7 1025.3 0.0
26/10:30am ENE 3 5 - - - - 10 - - 19.9 1025.7 0.0
26/10:00am CALM 0 0 - - - - 10 - - 17.9 1025.8 0.0
26/09:30am CALM 0 0 - - - - 10 - - 15.7 1026.0 0.0
26/09:00am NW 2 3 - - - - 10 - - 12.9 1026.0 0.0
26/08:30am W 1 4 - - - - 10 - - 10.7 1025.9 0.0
26/08:00am W 1 3 - - - - 10 - - 8.9 1025.9 0.0
26/07:30am W 2 4 - - - - 10 - - 6.7 1025.7 0.0
26/07:29am W 2 4 - - - - 10 - - 6.6 1025.7 0.0
26/07:07am CALM 0 1 - - - - 5 - - 6.2 1025.5 0.0
26/07:00am WNW 1 4 - - - - 9 - - 6.4 1025.4 0.0
26/06:47am WNW 3 5 - - - - 6 - - 6.3 1025.3 0.0
26/06:30am WSW 1 4 - - - - 2 - - 6.3 1025.2 0.0
26/06:16am WSW 3 3 - - - - 5 - - 6.2 1025.1 0.0
26/06:14am WSW 3 3 - - - - 10 - - 6.4 1025.0 0.0
26/06:00am W 2 4 - - - - 3 - - 6.7 1025.0 0.0
26/05:47am CALM 0 0 - - - - 4 - - 5.8 1025.0 0.0
26/05:30am CALM 0 0 - - - - 10 - - 6.2 1024.9 0.0
26/05:00am WSW 2 3 - - - - 10 - - 6.2 1024.7 0.0
26/04:36am WSW 3 4 - - - - 10 - - 6.3 1024.7 0.0
26/04:30am WSW 3 4 - - - - 10 - - 6.8 1024.6 0.0
26/04:04am WNW 2 4 - - - - 5 - - 7.1 1024.7 0.0
26/04:00am WNW 1 4 - - - - 8 - - 7.4 1024.7 0.0
26/03:57am CALM 0 3 - - - - 10 - - 7.4 1024.8 0.0
26/03:30am WNW 3 4 - - - - 1 - - 7.1 1024.8 0.0
26/03:03am CALM 0 0 - - - - 1 - - 7.4 1025.0 0.0
26/03:00am CALM 0 0 - - - - 0.5 Mostly clear - 7.2 1025.0 0.0
26/02:56am CALM 0 0 - - - - 0.9 Partly cloudy - 7.6 1025.1 0.0
26/02:50am CALM 0 0 - - - - 1 Partly cloudy - 7.8 1025.1 0.0
26/02:35am WNW 1 3 - - - - 0.8 Partly cloudy - 8.0 1025.2 0.0
26/02:30am WNW 2 3 - - - - 2 - - 7.5 1025.2 0.0
26/02:20am WNW 3 4 - - - - 1 - - 7.6 1025.3 0.0
26/02:12am WNW 1 4 - - - - 0.9 - - 8.1 1025.4 0.0
26/02:00am CALM 0 0 - - - - 2 - - 7.4 1025.4 0.0
26/01:42am CALM 0 0 - - - - 5 - - 8.2 1025.6 0.0
26/01:41am CALM 0 0 - - - - 7 - - 8.1 1025.6 0.0
26/01:30am CALM 0 0 - - - - 3 - - 8.0 1025.7 0.0
26/01:28am CALM 0 0 - - - - 1 - - 7.9 1025.7 0.0
26/01:17am CALM 0 0 - - - - 0.8 Partly cloudy - 8.0 1025.8 0.0
26/01:00am CALM 0 0 - - - - 4 - - 8.3 1025.8 0.0
26/12:41am CALM 0 0 - - - - 5 - - 8.5 1025.9 0.0
26/12:40am CALM 0 0 - - - - 6 - - 8.6 1025.9 0.0
26/12:30am CALM 0 0 - - - - 4 - - 8.7 1026.0 0.0
26/12:11am WNW 2 4 - - - - 5 - - 9.3 1026.1 0.0
26/12:00am CALM 0 0 - - - - 10 Cloudy - 9.1 1026.1 0.0
 
Date/Time
EST
Wind Sea
Height
m
Swell Vis
km
Cloud Weather Temp
°C
Press
MSL
hPa
Rain since
9am
mm
Dir  Spd
kts
Gust
kts
Height
m
Period
s
Dir
25/11:30pm CALM 0 0 - - - - 10 - - 9.7 1026.2 0.0
25/11:00pm CALM 0 0 - - - - 10 - - 9.8 1026.3 0.0
25/10:30pm WNW 3 4 - - - - 10 - - 10.2 1026.4 0.0
25/10:00pm WNW 5 5 - - - - 10 - - 9.7 1026.4 0.0
25/09:57pm WNW 5 5 - - - - 10 - - 9.6 1026.4 0.0
25/09:44pm WSW 1 4 - - - - 5 - - 10.1 1026.5 0.0
25/09:40pm CALM 0 0 - - - - 6 - - 10.3 1026.5 0.0
25/09:30pm CALM 0 0 - - - - 5 - - 10.5 1026.6 0.0
25/09:24pm CALM 0 0 - - - - 5 - - 10.2 1026.7 0.0
25/09:00pm CALM 0 0 - - - - 10 - - 10.9 1026.7 0.0
25/08:30pm WSW 4 5 - - - - 10 Partly cloudy - 11.5 1026.5 0.0
25/08:00pm WSW 3 3 - - - - 10 Partly cloudy - 11.5 1026.4 0.0
25/07:30pm W 3 4 - - - - 10 - - 12.1 1026.3 0.0
25/07:00pm WNW 3 4 - - - - 10 - - 12.4 1026.1 0.0
25/06:30pm WSW 3 4 - - - - 10 Partly cloudy - 13.0 1026.1 0.0
25/06:00pm WNW 4 5 - - - - 10 Cloudy - 13.5 1026.0 0.0
25/05:30pm WSW 4 5 - - - - 10 - - 14.7 1025.8 0.0
25/05:00pm SE 2 5 - - - - 10 - - 16.1 1025.7 0.0
25/04:30pm SE 3 6 - - - - 10 - - 17.1 1025.6 0.0
25/04:00pm SE 4 6 - - - - 10 - - 17.9 1025.6 0.0
25/03:30pm SE 5 7 - - - - 10 - - 18.5 1025.6 0.0
25/03:00pm ESE 6 9 - - - - 10 Partly cloudy - 19.2 1025.5 0.0
25/02:30pm ENE 6 8 - - - - 10 - - 19.8 1025.4 0.0
25/02:00pm NE 6 8 - - - - 10 Partly cloudy - 19.8 1025.5 0.0
25/01:30pm NE 5 7 - - - - 10 - - 20.3 1025.7 0.0
25/01:00pm ENE 6 7 - - - - 10 - - 20.1 1026.1 0.0
25/12:30pm NNW 3 6 - - - - 10 - - 20.6 1026.6 0.0
25/12:00pm NW 3 5 - - - - 10 Mostly clear - 19.3 1027.0 0.0
25/11:30am WNW 1 4 - - - - 10 - - 18.8 1027.3 0.0
25/11:00am WNW 3 4 - - - - 10 - - 18.6 1027.9 0.0
25/10:30am WSW 4 5 - - - - 10 - - 17.4 1028.4 0.0
25/10:00am W 3 4 - - - - 10 - - 16.4 1028.6 0.0
25/09:30am W 5 6 - - - - 10 - - 15.0 1028.6 0.0
25/09:00am CALM 0 0 - - - - 10 - - 12.8 1028.6 0.0
25/08:30am CALM 0 0 - - - - 10 - - 11.3 1028.4 0.0
25/08:00am CALM 0 0 - - - - 10 - - 9.2 1028.3 0.0
25/07:30am W 2 3 - - - - 10 - - 8.5 1028.1 0.0
25/07:00am W 3 4 - - - - 10 - - 7.8 1027.7 0.0
25/06:30am W 1 4 - - - - 10 - - 7.8 1027.6 0.0
25/06:00am CALM 0 0 - - - - 10 Mostly cloudy - 8.1 1027.5 0.0
25/05:30am W 2 3 - - - - 10 - - 8.1 1027.2 0.0
25/05:00am WSW 3 4 - - - - 10 - - 7.7 1027.0 0.0
25/04:30am CALM 0 0 - - - - 10 - - 7.9 1027.0 0.0
25/04:00am CALM 0 0 - - - - 10 - - 8.2 1027.1 0.0
25/03:30am CALM 0 0 - - - - 10 - - 8.4 1027.3 0.0
25/03:00am WNW 4 5 - - - - 10 - - 7.9 1027.3 0.0
25/02:30am CALM 0 0 - - - - 10 - - 8.2 1027.3 0.0
25/02:00am WSW 2 3 - - - - 10 - - 8.7 1027.6 0.0
25/01:30am CALM 0 0 - - - - 10 - - 8.7 1027.7 0.0
25/01:00am W 3 5 - - - - 10 - - 9.5 1027.8 0.0
25/12:30am WNW 5 6 - - - - 10 - - 9.4 1027.9 0.0
25/12:00am SW 1 3 - - - - 10 Partly cloudy - 9.6 1028.0 0.0
 
Date/Time
EST
Wind Sea
Height
m
Swell Vis
km
Cloud Weather Temp
°C
Press
MSL
hPa
Rain since
9am
mm
Dir  Spd
kts
Gust
kts
Height
m
Period
s
Dir
24/11:30pm CALM 0 0 - - - - 10 - - 10.2 1028.2 0.0
24/11:00pm CALM 0 0 - - - - 10 Partly cloudy - 10.3 1028.1 0.0
24/10:30pm CALM 0 0 - - - - 10 Partly cloudy - 11.1 1028.3 0.0
24/10:00pm SW 3 5 - - - - 10 Partly cloudy - 11.0 1028.4 0.0
24/09:30pm WSW 4 5 - - - - 10 - - 11.1 1028.5 0.0
24/09:00pm WSW 2 4 - - - - 10 Mostly clear - 11.6 1028.3 0.0
24/08:30pm CALM 0 3 - - - - 10 Cloudy - 12.5 1028.1 0.0
24/08:00pm W 3 5 - - - - 10 Partly cloudy - 13.4 1028.0 0.0
24/07:30pm NW 1 4 - - - - 10 Partly cloudy - 13.2 1027.9 0.0
24/07:00pm CALM 0 0 - - - - 10 Cloudy - 13.7 1027.7 0.0
24/06:30pm SW 2 3 - - - - 10 Partly cloudy - 14.0 1027.3 0.0
24/06:00pm SSW 4 5 - - - - 10 Mostly clear - 14.7 1026.9 0.0
24/05:30pm SW 4 6 - - - - 10 Partly cloudy - 14.7 1026.6 0.0
24/05:00pm S 3 5 - - - - 10 Partly cloudy - 15.6 1026.2 0.0
24/04:30pm SSE 2 4 - - - - 10 - - 16.2 1026.0 0.0
24/04:00pm SSE 4 6 - - - - 10 Partly cloudy - 16.6 1025.9 0.0
24/03:30pm SSE 5 9 - - - - 10 Partly cloudy - 16.9 1026.0 0.0
24/03:00pm SSE 5 8 - - - - 10 Mostly clear - 17.2 1025.9 0.0
24/02:30pm SE 6 11 - - - - 10 - - 17.5 1025.9 0.0
24/02:00pm ESE 6 9 - - - - 10 Partly cloudy - 18.3 1025.8 0.0
24/01:30pm ESE 6 8 - - - - 10 Partly cloudy - 18.9 1025.9 0.0
24/01:00pm ENE 6 10 - - - - 10 Partly cloudy - 19.6 1026.0 0.0
24/12:30pm SE 5 6 - - - - 10 Cloudy - 18.9 1026.2 0.0
24/12:00pm NE 6 10 - - - - 10 Cloudy - 19.6 1026.5 0.0
24/11:30am NNE 4 10 - - - - 10 Partly cloudy - 20.4 1026.8 0.0
24/11:00am SSE 3 6 - - - - 10 - - 19.2 1027.4 0.0
24/10:30am W 4 6 - - - - 10 - - 17.8 1027.5 0.0
24/10:00am WNW 4 5 - - - - 10 - - 17.1 1027.5 0.0
24/09:30am WNW 3 4 - - - - 10 - - 15.0 1027.5 0.0
24/09:00am WNW 3 4 - - - - 10 - - 13.0 1027.5 0.0
24/08:30am CALM 0 3 - - - - 10 - - 10.7 1027.7 0.0

Other formats

Comma delimited format used in spreadsheet applications
http://www.bom.gov.au/fwo/IDN60701/IDN60701.95748.axf

JavaScript Object Notation format (JSON) in row-major order
http://www.bom.gov.au/fwo/IDN60701/IDN60701.95748.json

Data quality

Most of these data are generated automatically and are frequently updated. Quality checks on data are not normally performed. It is possible for incorrect values to appear. Refer to information at About Latest Weather Observations and please check the disclaimer before using these data.